createdAt,value
2023-04-18T00:23:34.399Z,27.50
2023-04-18T00:38:37.032Z,26.40
2023-04-18T00:53:41.351Z,24.00
2023-04-18T01:08:44.815Z,26.10
2023-04-18T01:23:48.928Z,27.40
2023-04-18T01:38:51.508Z,22.50
2023-04-18T01:53:54.218Z,22.60
2023-04-18T02:08:56.986Z,24.20
2023-04-18T03:09:08.154Z,22.20
2023-04-18T03:24:12.218Z,22.40
2023-04-18T03:39:15.064Z,22.60
2023-04-18T03:54:18.099Z,22.80
2023-04-18T04:09:20.710Z,24.30
2023-04-18T04:24:23.484Z,30.40
2023-04-18T04:54:28.563Z,29.70
2023-04-18T05:09:31.142Z,24.60
2023-04-18T05:24:33.693Z,26.60
2023-04-18T05:39:36.645Z,25.80
2023-04-18T05:54:39.347Z,28.00
2023-04-18T06:09:42.085Z,24.80
2023-04-18T06:24:44.972Z,26.70
2023-04-18T06:39:47.576Z,24.20
2023-04-18T06:54:50.270Z,23.10
2023-04-18T07:09:53.975Z,22.40
2023-04-18T07:24:56.570Z,16.50
2023-04-18T07:39:59.378Z,14.10
2023-04-18T07:55:01.958Z,15.50
2023-04-18T08:10:05.344Z,18.00
2023-04-18T08:25:08.449Z,17.40
2023-04-18T08:40:11.256Z,18.20
2023-04-18T08:55:14.082Z,24.10
2023-04-18T09:10:32.636Z,23.00
2023-04-18T09:25:45.139Z,23.40
2023-04-18T09:41:07.342Z,25.30
2023-04-18T09:56:33.622Z,24.80
2023-04-18T10:11:36.800Z,22.50
2023-04-18T10:26:47.097Z,23.30
2023-04-18T10:41:51.186Z,21.40
2023-04-18T10:56:55.923Z,28.20
2023-04-18T11:12:07.436Z,23.90
2023-04-18T11:27:11.951Z,23.40
2023-04-18T11:42:14.799Z,26.60
2023-04-18T11:57:24.292Z,28.10
2023-04-18T12:12:27.155Z,26.10
2023-04-18T12:27:52.576Z,27.00
2023-04-18T12:42:56.092Z,25.50
2023-04-18T12:57:59.066Z,25.80
2023-04-18T13:13:01.959Z,30.00
2023-04-18T13:28:04.880Z,33.10
2023-04-18T13:43:07.706Z,34.00
2023-04-18T13:58:10.776Z,31.40
2023-04-18T14:13:13.646Z,27.50
2023-04-18T14:28:17.525Z,23.80
2023-04-18T14:43:20.433Z,23.70
2023-04-18T14:58:30.590Z,24.10
2023-04-18T15:13:34.938Z,24.40
2023-04-18T15:28:37.958Z,25.60
2023-04-18T15:43:41.899Z,29.60
2023-04-18T15:58:44.511Z,29.80
2023-04-18T16:13:49.142Z,27.20
2023-04-18T16:28:52.028Z,27.10
2023-04-18T16:43:54.716Z,27.70
2023-04-18T16:58:58.786Z,27.00
2023-04-18T17:14:01.893Z,28.30
2023-04-18T17:29:04.903Z,30.40
2023-04-18T17:44:08.338Z,30.90
2023-04-18T17:59:12.318Z,29.90
2023-04-18T18:14:16.691Z,37.60
2023-04-18T18:29:19.917Z,39.30
2023-04-18T18:44:22.968Z,31.40
2023-04-18T18:59:25.624Z,29.90
2023-04-18T19:29:32.719Z,30.80
2023-04-18T19:44:35.824Z,29.00
2023-04-18T19:59:38.415Z,26.70
2023-04-18T20:29:43.708Z,24.60
2023-04-18T20:59:49.925Z,26.80
2023-04-18T22:15:04.336Z,23.40
2023-04-18T22:30:08.018Z,23.40
2023-04-18T22:45:10.859Z,26.80
2023-04-18T23:00:14.420Z,26.10
2023-04-18T23:15:17.525Z,22.50
2023-04-18T23:30:20.158Z,22.00
2023-04-18T23:45:24.515Z,24.80
